Harbor Admiral — WDB3860 — position and weather

sailwx.info

Track history (hours):
 
Tides and Currents Weather Stations Pressure Air Temp Water Temp Dewpoint Dewpoint Depression Visibility Wind Speed Wind Dir Waves Ship Positions

Harbor Admiral

Owner: PACIFIC TUGBOAT SERVICE INC, SAN DIEGO, CA. More information available from US FCC via Universal Licensing System and Coast Guard Vessel Documentation Center.

Last reported at 2017-Sep-19 03:30 UTC. Time now 2017-Sep-19 16:59 UTC.
Position N 33°46' W 118°13'.

Type: Towing. MMSI: 366892110.

Date/timePositionNaut miles runAvg speedWind from/ knotsBaromVisibWave heightAir tempDewpointWater temp
2017-Sep-19 03:30N 33°46' W 118°13'0 0.3
2017-Sep-19 03:00N 33°46' W 118°13'2 3.8
2017-Sep-19 02:30N 33°44' W 118°13'2 4.9
2017-Sep-19 02:00N 33°43' W 118°15'2 4.3
2017-Sep-19 01:30N 33°45' W 118°16'0 0.4
2017-Sep-19 01:00N 33°45' W 118°16'0 0.0
2017-Sep-19 00:30N 33°45' W 118°16'0 0.0
2017-Sep-19 00:00N 33°45' W 118°16'2 4.1
2017-Sep-18 23:30N 33°46' W 118°14'1 2.3
2017-Sep-18 23:00N 33°46' W 118°13'  
2017-Sep-16 00:22N 33°46' W 118°13'1 3.9
2017-Sep-16 00:00N 33°46' W 118°15'2 3.5
2017-Sep-15 23:31N 33°45' W 118°16'0 0.0
2017-Sep-15 23:00N 33°45' W 118°16'0 0.0
2017-Sep-15 22:31N 33°45' W 118°16'2 3.8
2017-Sep-15 22:00N 33°43' W 118°16'2 3.5
2017-Sep-15 21:31N 33°44' W 118°14'2 4.0
2017-Sep-15 21:00N 33°45' W 118°13'1 1.8
2017-Sep-15 20:30N 33°46' W 118°13'0 0.4
2017-Sep-15 20:00N 33°46' W 118°13'1 1.0
2017-Sep-15 19:30N 33°46' W 118°13'0 0.5
2017-Sep-15 19:00N 33°46' W 118°13'0 0.0
2017-Sep-15 18:30N 33°46' W 118°13'0 0.3
2017-Sep-15 18:00N 33°46' W 118°13'0 0.8
2017-Sep-15 17:30N 33°46' W 118°13'3 5.1
2017-Sep-15 16:59N 33°44' W 118°11'1 2.2
2017-Sep-15 16:30N 33°45' W 118°10'2 3.9
2017-Sep-15 15:59N 33°44' W 118°12'2 4.4
2017-Sep-15 15:30N 33°46' W 118°13'0 0.0
2017-Sep-14 21:41N 33°46' W 118°13'0 0.3
2017-Sep-14 21:30N 33°46' W 118°13'0 0.0
2017-Sep-14 21:00N 33°46' W 118°13'0 0.1
2017-Sep-14 20:30N 33°46' W 118°13'0 0.7
2017-Sep-14 20:00N 33°46' W 118°13'0 0.7
2017-Sep-14 19:30N 33°46' W 118°13'0 0.0
2017-Sep-14 19:00N 33°46' W 118°13'0 0.0
2017-Sep-14 18:30N 33°46' W 118°13'0 0.0
2017-Sep-14 18:00N 33°46' W 118°13'0 0.0
2017-Sep-14 17:30N 33°46' W 118°13'0 0.0
2017-Sep-14 17:00N 33°46' W 118°13'0 0.0
2017-Sep-14 16:30N 33°46' W 118°13'0 0.0
2017-Sep-14 16:00N 33°46' W 118°13'0 0.0
2017-Sep-13 23:25N 33°46' W 118°13'1 1.3
2017-Sep-13 23:00N 33°46' W 118°13'2 4.0
2017-Sep-13 22:30N 33°44' W 118°12'2 3.9
2017-Sep-13 22:00N 33°44' W 118°10'2 3.8
2017-Sep-13 21:30N 33°44' W 118°08'1 2.0
2017-Sep-13 21:00N 33°45' W 118°08'0 0.3
2017-Sep-13 20:30N 33°45' W 118°08'1 2.6
2017-Sep-13 20:00N 33°44' W 118°09'4 0.7
2017-Sep-13 14:14N 33°46' W 118°13'1 3.9
2017-Sep-13 14:00N 33°45' W 118°13'1 1.9
2017-Sep-13 13:30N 33°45' W 118°14'0 0.0
2017-Sep-13 13:00N 33°45' W 118°14'1 1.9
2017-Sep-13 12:30N 33°46' W 118°13'1 1.6
2017-Sep-13 12:00N 33°46' W 118°13'0 0.0
2017-Sep-13 11:30N 33°46' W 118°13'0 0.0
2017-Sep-13 11:00N 33°46' W 118°13'0 0.0
2017-Sep-13 10:30N 33°46' W 118°13'0 0.0
2017-Sep-13 10:00N 33°46' W 118°13'0 0.0
2017-Sep-12 19:28N 33°46' W 118°13'0 0.0
2017-Sep-12 17:57N 33°46' W 118°13'0 0.0
2017-Sep-12 17:30N 33°46' W 118°13'0 0.0
2017-Sep-12 17:00N 33°46' W 118°13'0 0.0
2017-Sep-12 16:30N 33°46' W 118°13'0 0.0
2017-Sep-12 13:18N 33°46' W 118°13'0 0.0
2017-Sep-12 13:00N 33°46' W 118°13'0 0.0
2017-Sep-12 12:30N 33°46' W 118°13'0 0.0
2017-Sep-12 02:29N 33°46' W 118°13'0 0.2
2017-Sep-12 02:00N 33°46' W 118°13'1 2.4
2017-Sep-12 01:30N 33°45' W 118°13'1 1.9
2017-Sep-12 01:00N 33°45' W 118°14'0 0.1
2017-Sep-12 00:30N 33°45' W 118°14'0 0.0
2017-Sep-12 00:00N 33°45' W 118°14'1 1.3
2017-Sep-11 23:30N 33°45' W 118°13'1 0.3
2017-Sep-11 18:37N 33°46' W 118°13'0 0.5
2017-Sep-11 18:30N 33°46' W 118°13'1 1.9
2017-Sep-11 18:01N 33°46' W 118°14'1 1.1
2017-Sep-11 17:31N 33°46' W 118°15'1 2.4
2017-Sep-11 17:01N 33°46' W 118°13'  
Track history (hours):
 
Tides and Currents Weather Stations Pressure Air Temp Water Temp Dewpoint Dewpoint Depression Visibility Wind Speed Wind Dir Waves Ship Positions

Harbor Admiral

Owner: PACIFIC TUGBOAT SERVICE INC, SAN DIEGO, CA. More information available from US FCC via Universal Licensing System and Coast Guard Vessel Documentation Center.

Last reported at 2017-Sep-19 03:30 UTC. Time now 2017-Sep-19 16:59 UTC.
Position N 33°46' W 118°13'.

Type: Towing. MMSI: 366892110.

Date/timePositionNaut miles runAvg speedWind from/ knotsBaromVisibWave heightAir tempDewpointWater temp
2017-Sep-19 03:30N 33°46' W 118°13'0 0.3
2017-Sep-19 03:00N 33°46' W 118°13'2 3.8
2017-Sep-19 02:30N 33°44' W 118°13'2 4.9
2017-Sep-19 02:00N 33°43' W 118°15'2 4.3
2017-Sep-19 01:30N 33°45' W 118°16'0 0.4
2017-Sep-19 01:00N 33°45' W 118°16'0 0.0
2017-Sep-19 00:30N 33°45' W 118°16'0 0.0
2017-Sep-19 00:00N 33°45' W 118°16'2 4.1
2017-Sep-18 23:30N 33°46' W 118°14'1 2.3
2017-Sep-18 23:00N 33°46' W 118°13'  
2017-Sep-16 00:22N 33°46' W 118°13'1 3.9
2017-Sep-16 00:00N 33°46' W 118°15'2 3.5
2017-Sep-15 23:31N 33°45' W 118°16'0 0.0
2017-Sep-15 23:00N 33°45' W 118°16'0 0.0
2017-Sep-15 22:31N 33°45' W 118°16'2 3.8
2017-Sep-15 22:00N 33°43' W 118°16'2 3.5
2017-Sep-15 21:31N 33°44' W 118°14'2 4.0
2017-Sep-15 21:00N 33°45' W 118°13'1 1.8
2017-Sep-15 20:30N 33°46' W 118°13'0 0.4
2017-Sep-15 20:00N 33°46' W 118°13'1 1.0
2017-Sep-15 19:30N 33°46' W 118°13'0 0.5
2017-Sep-15 19:00N 33°46' W 118°13'0 0.0
2017-Sep-15 18:30N 33°46' W 118°13'0 0.3
2017-Sep-15 18:00N 33°46' W 118°13'0 0.8
2017-Sep-15 17:30N 33°46' W 118°13'3 5.1
2017-Sep-15 16:59N 33°44' W 118°11'1 2.2
2017-Sep-15 16:30N 33°45' W 118°10'2 3.9
2017-Sep-15 15:59N 33°44' W 118°12'2 4.4
2017-Sep-15 15:30N 33°46' W 118°13'0 0.0
2017-Sep-14 21:41N 33°46' W 118°13'0 0.3
2017-Sep-14 21:30N 33°46' W 118°13'0 0.0
2017-Sep-14 21:00N 33°46' W 118°13'0 0.1
2017-Sep-14 20:30N 33°46' W 118°13'0 0.7
2017-Sep-14 20:00N 33°46' W 118°13'0 0.7
2017-Sep-14 19:30N 33°46' W 118°13'0 0.0
2017-Sep-14 19:00N 33°46' W 118°13'0 0.0
2017-Sep-14 18:30N 33°46' W 118°13'0 0.0
2017-Sep-14 18:00N 33°46' W 118°13'0 0.0
2017-Sep-14 17:30N 33°46' W 118°13'0 0.0
2017-Sep-14 17:00N 33°46' W 118°13'0 0.0
2017-Sep-14 16:30N 33°46' W 118°13'0 0.0
2017-Sep-14 16:00N 33°46' W 118°13'0 0.0
2017-Sep-13 23:25N 33°46' W 118°13'1 1.3
2017-Sep-13 23:00N 33°46' W 118°13'2 4.0
2017-Sep-13 22:30N 33°44' W 118°12'2 3.9
2017-Sep-13 22:00N 33°44' W 118°10'2 3.8
2017-Sep-13 21:30N 33°44' W 118°08'1 2.0
2017-Sep-13 21:00N 33°45' W 118°08'0 0.3
2017-Sep-13 20:30N 33°45' W 118°08'1 2.6
2017-Sep-13 20:00N 33°44' W 118°09'4 0.7
2017-Sep-13 14:14N 33°46' W 118°13'1 3.9
2017-Sep-13 14:00N 33°45' W 118°13'1 1.9
2017-Sep-13 13:30N 33°45' W 118°14'0 0.0
2017-Sep-13 13:00N 33°45' W 118°14'1 1.9
2017-Sep-13 12:30N 33°46' W 118°13'1 1.6
2017-Sep-13 12:00N 33°46' W 118°13'0 0.0
2017-Sep-13 11:30N 33°46' W 118°13'0 0.0
2017-Sep-13 11:00N 33°46' W 118°13'0 0.0
2017-Sep-13 10:30N 33°46' W 118°13'0 0.0
2017-Sep-13 10:00N 33°46' W 118°13'0 0.0
2017-Sep-12 19:28N 33°46' W 118°13'0 0.0
2017-Sep-12 17:57N 33°46' W 118°13'0 0.0
2017-Sep-12 17:30N 33°46' W 118°13'0 0.0
2017-Sep-12 17:00N 33°46' W 118°13'0 0.0
2017-Sep-12 16:30N 33°46' W 118°13'0 0.0
2017-Sep-12 13:18N 33°46' W 118°13'0 0.0
2017-Sep-12 13:00N 33°46' W 118°13'0 0.0
2017-Sep-12 12:30N 33°46' W 118°13'0 0.0
2017-Sep-12 02:29N 33°46' W 118°13'0 0.2
2017-Sep-12 02:00N 33°46' W 118°13'1 2.4
2017-Sep-12 01:30N 33°45' W 118°13'1 1.9
2017-Sep-12 01:00N 33°45' W 118°14'0 0.1
2017-Sep-12 00:30N 33°45' W 118°14'0 0.0
2017-Sep-12 00:00N 33°45' W 118°14'1 1.3
2017-Sep-11 23:30N 33°45' W 118°13'1 0.3
2017-Sep-11 18:37N 33°46' W 118°13'0 0.5
2017-Sep-11 18:30N 33°46' W 118°13'1 1.9
2017-Sep-11 18:01N 33°46' W 118°14'1 1.1
2017-Sep-11 17:31N 33°46' W 118°15'1 2.4
2017-Sep-11 17:01N 33°46' W 118°13'  

Dump ship's entire track history